createdAt,value
2023-04-21T00:02:46.951Z,7.50
2023-04-21T00:07:03.141Z,10.25
2023-04-21T00:11:15.603Z,6.32
2023-04-21T00:15:28.035Z,6.32
2023-04-21T00:19:40.338Z,6.45
2023-04-21T00:23:52.803Z,7.28
2023-04-21T00:28:05.304Z,8.88
2023-04-21T00:32:17.746Z,7.20
2023-04-21T00:36:30.098Z,6.10
2023-04-21T00:40:42.351Z,7.25
2023-04-21T00:44:57.391Z,5.93
2023-04-21T00:49:09.957Z,6.35
2023-04-21T00:53:22.830Z,7.40
2023-04-21T00:57:40.295Z,5.78
2023-04-21T01:01:53.324Z,5.40
2023-04-21T01:06:07.369Z,7.88
2023-04-21T01:10:22.485Z,6.03
2023-04-21T01:14:36.298Z,7.68
2023-04-21T01:18:49.958Z,7.97
2023-04-21T01:23:02.580Z,6.43
2023-04-21T01:27:20.188Z,7.07
2023-04-21T01:31:33.283Z,7.30
2023-04-21T01:35:46.261Z,7.22
2023-04-21T01:40:02.557Z,6.18
2023-04-21T01:44:14.950Z,9.20
2023-04-21T01:48:27.555Z,6.10
2023-04-21T01:52:39.899Z,5.97
2023-04-21T01:56:52.384Z,7.70
2023-04-21T02:01:06.411Z,4.55
2023-04-21T02:05:19.201Z,4.80
2023-04-21T02:09:32.272Z,4.85
2023-04-21T02:13:44.631Z,6.85
2023-04-21T02:17:58.736Z,4.43
2023-04-21T02:22:13.173Z,7.82
2023-04-21T02:26:25.966Z,6.97
2023-04-21T02:30:38.966Z,5.63
2023-04-21T02:34:52.243Z,9.13
2023-04-21T02:39:04.577Z,4.07
2023-04-21T02:43:17.468Z,6.18
2023-04-21T02:47:29.832Z,6.25
2023-04-21T02:51:42.748Z,4.65
2023-04-21T02:55:55.856Z,5.55
2023-04-21T03:00:12.148Z,5.18
2023-04-21T03:04:25.876Z,5.95
2023-04-21T03:08:38.341Z,6.65
2023-04-21T03:12:51.588Z,5.30
2023-04-21T03:17:03.944Z,5.65
2023-04-21T03:21:16.945Z,7.63
2023-04-21T03:25:29.872Z,7.43
2023-04-21T03:29:42.596Z,6.30
2023-04-21T03:33:54.988Z,6.78
2023-04-21T03:38:07.526Z,5.90
2023-04-21T03:42:20.867Z,5.50
2023-04-21T03:46:34.384Z,7.90
2023-04-21T03:50:46.845Z,4.30
2023-04-21T03:54:59.402Z,6.63
2023-04-21T03:59:11.807Z,5.35
2023-04-21T04:03:24.359Z,6.35
2023-04-21T04:07:36.704Z,8.55
2023-04-21T04:11:49.198Z,4.40
2023-04-21T04:16:01.600Z,5.78
2023-04-21T04:20:13.988Z,5.65
2023-04-21T04:24:27.037Z,5.50
2023-04-21T04:28:39.430Z,7.43
2023-04-21T04:32:53.246Z,5.38
2023-04-21T04:37:06.968Z,5.13
2023-04-21T04:41:21.161Z,4.15
2023-04-21T04:45:33.729Z,7.75
2023-04-21T04:49:46.170Z,5.38
2023-04-21T04:53:58.520Z,9.55
2023-04-21T04:58:10.990Z,6.57
2023-04-21T05:02:24.675Z,7.75
2023-04-21T05:06:37.540Z,7.90
2023-04-21T05:10:49.801Z,6.50
2023-04-21T05:15:02.197Z,5.03
2023-04-21T05:19:16.301Z,5.97
2023-04-21T05:23:30.589Z,8.88
2023-04-21T05:27:43.716Z,6.18
2023-04-21T05:31:56.232Z,4.65
2023-04-21T05:36:11.995Z,3.92
2023-04-21T05:40:24.483Z,6.22
2023-04-21T05:44:37.064Z,9.25
2023-04-21T05:48:49.562Z,6.95
2023-04-21T05:53:02.691Z,5.50
2023-04-21T05:57:16.966Z,9.23
2023-04-21T06:01:29.720Z,6.35
2023-04-21T06:05:42.207Z,5.72
2023-04-21T06:09:54.926Z,6.10
2023-04-21T06:14:08.456Z,9.65
2023-04-21T06:18:21.150Z,12.65
2023-04-21T06:22:34.033Z,12.43
2023-04-21T06:26:46.436Z,14.13
2023-04-21T06:30:59.751Z,14.32
2023-04-21T06:35:17.449Z,13.32
2023-04-21T06:39:29.872Z,16.77
2023-04-21T06:43:42.862Z,16.65
2023-04-21T06:47:55.297Z,17.80
2023-04-21T06:52:07.678Z,16.23
2023-04-21T06:56:20.059Z,14.07
2023-04-21T07:00:32.547Z,15.60
2023-04-21T07:04:45.122Z,16.80
2023-04-21T07:08:57.766Z,14.77
2023-04-21T07:13:10.253Z,19.63
2023-04-21T07:17:23.496Z,15.40
2023-04-21T07:21:36.545Z,18.02
2023-04-21T07:25:48.988Z,16.75
2023-04-21T07:30:01.510Z,15.45
2023-04-21T07:34:13.919Z,23.77
2023-04-21T07:38:26.509Z,15.82
2023-04-21T07:42:39.356Z,12.73
2023-04-21T07:46:51.852Z,12.40
2023-04-21T07:51:04.376Z,13.60
2023-04-21T07:55:16.930Z,12.20
2023-04-21T07:59:29.251Z,15.80
2023-04-21T08:03:43.212Z,13.75
2023-04-21T08:07:55.948Z,11.60
2023-04-21T08:12:08.414Z,13.77
2023-04-21T08:16:20.895Z,11.90
2023-04-21T08:20:33.341Z,11.82
2023-04-21T08:24:45.774Z,10.32
2023-04-21T08:28:58.217Z,9.38
2023-04-21T08:33:14.083Z,7.57
2023-04-21T08:37:26.509Z,10.07
2023-04-21T08:41:40.956Z,9.85
2023-04-21T08:45:56.463Z,9.77
2023-04-21T08:50:13.822Z,10.95
2023-04-21T08:54:28.034Z,10.60
2023-04-21T08:58:42.178Z,9.90
2023-04-21T09:03:01.739Z,7.80
2023-04-21T09:07:35.425Z,8.70
2023-04-21T09:11:57.417Z,10.25
2023-04-21T09:16:21.965Z,8.65
2023-04-21T09:20:34.932Z,7.10
2023-04-21T09:24:49.076Z,7.90
2023-04-21T09:29:02.136Z,8.13
2023-04-21T09:33:29.595Z,7.22
2023-04-21T09:37:46.788Z,7.88
2023-04-21T09:41:59.705Z,13.07
2023-04-21T09:46:13.354Z,9.85
2023-04-21T09:50:54.812Z,10.38
2023-04-21T09:55:04.724Z,8.55
2023-04-21T09:59:23.531Z,5.77
2023-04-21T10:03:40.257Z,8.10
2023-04-21T10:07:53.960Z,11.88
2023-04-21T10:12:09.163Z,10.77
2023-04-21T10:16:23.531Z,6.10
2023-04-21T10:21:03.398Z,8.65
2023-04-21T10:25:15.765Z,9.40
2023-04-21T10:29:47.873Z,6.70
2023-04-21T10:34:06.935Z,6.20
2023-04-21T10:38:35.911Z,7.72
2023-04-21T10:42:49.791Z,6.00
2023-04-21T10:47:02.195Z,5.57
2023-04-21T10:51:15.616Z,6.18
2023-04-21T10:55:29.748Z,9.25
2023-04-21T10:59:42.582Z,11.27
2023-04-21T11:03:58.553Z,8.07
2023-04-21T11:08:15.730Z,10.32
2023-04-21T11:12:30.617Z,7.53
2023-04-21T11:16:43.595Z,7.88
2023-04-21T11:20:56.115Z,7.28
2023-04-21T11:25:18.914Z,7.85
2023-04-21T11:29:31.332Z,7.43
2023-04-21T11:33:43.882Z,10.65
2023-04-21T11:37:56.776Z,9.50
2023-04-21T11:42:09.220Z,8.57
2023-04-21T11:46:28.835Z,11.52
2023-04-21T11:50:41.413Z,5.72
2023-04-21T11:55:26.519Z,7.63
2023-04-21T11:59:39.005Z,5.95
2023-04-21T12:03:56.027Z,8.15
2023-04-21T12:08:15.210Z,8.13
2023-04-21T12:12:27.977Z,6.15
2023-04-21T12:16:40.422Z,9.27
2023-04-21T12:20:53.602Z,7.55
2023-04-21T12:25:06.554Z,9.70
2023-04-21T12:29:18.856Z,9.27
2023-04-21T12:33:31.641Z,7.30
2023-04-21T12:37:45.131Z,8.93
2023-04-21T12:41:58.821Z,6.72
2023-04-21T12:46:11.348Z,7.78
2023-04-21T12:50:23.672Z,6.10
2023-04-21T12:54:36.357Z,9.45
2023-04-21T12:58:49.802Z,7.30
2023-04-21T13:03:02.774Z,11.45
2023-04-21T13:07:16.502Z,5.32
2023-04-21T13:11:29.066Z,8.25
2023-04-21T13:15:41.967Z,8.75
2023-04-21T13:19:54.390Z,10.50
2023-04-21T13:24:06.983Z,7.22
2023-04-21T13:28:19.981Z,9.60
2023-04-21T13:32:32.337Z,5.97
2023-04-21T13:36:45.352Z,9.63
2023-04-21T13:40:59.706Z,6.60
2023-04-21T13:45:12.550Z,9.07
2023-04-21T13:49:25.014Z,9.02
2023-04-21T13:53:37.447Z,9.05
2023-04-21T13:57:49.797Z,4.80
2023-04-21T14:02:02.430Z,6.97
2023-04-21T14:06:15.011Z,9.52
2023-04-21T14:10:27.605Z,9.63
2023-04-21T14:14:40.006Z,7.63
2023-04-21T14:18:53.809Z,10.38
2023-04-21T14:23:06.195Z,8.48
2023-04-21T14:27:18.675Z,7.93
2023-04-21T14:31:31.196Z,6.10
2023-04-21T14:35:43.621Z,7.47
2023-04-21T14:39:56.030Z,8.07
2023-04-21T14:44:08.749Z,7.40
2023-04-21T14:48:21.738Z,9.88
2023-04-21T14:52:34.101Z,8.15
2023-04-21T14:56:46.554Z,8.60
2023-04-21T15:00:59.419Z,9.18
2023-04-21T15:05:12.045Z,8.48
2023-04-21T15:09:24.578Z,7.13
2023-04-21T15:13:37.083Z,7.78
2023-04-21T15:17:49.484Z,9.30
2023-04-21T15:22:01.769Z,7.97
2023-04-21T15:26:14.144Z,8.93
2023-04-21T15:30:26.514Z,6.85
2023-04-21T15:34:38.858Z,6.53
2023-04-21T15:38:51.296Z,7.10
2023-04-21T15:43:03.659Z,8.10
2023-04-21T15:47:17.312Z,8.90
2023-04-21T15:51:29.694Z,6.20
2023-04-21T15:55:41.978Z,6.55
2023-04-21T15:59:54.611Z,8.32
2023-04-21T16:04:07.263Z,5.35
2023-04-21T16:08:19.850Z,6.85
2023-04-21T16:12:32.189Z,7.53
2023-04-21T16:16:45.671Z,9.48
2023-04-21T16:20:58.254Z,8.85
2023-04-21T16:25:14.129Z,6.35
2023-04-21T16:29:27.048Z,8.10
2023-04-21T16:33:39.417Z,11.50
2023-04-21T16:37:51.819Z,7.63
2023-04-21T16:42:04.402Z,8.90
2023-04-21T16:46:17.512Z,7.32
2023-04-21T16:50:29.920Z,8.35
2023-04-21T16:54:42.354Z,9.48
2023-04-21T16:58:54.713Z,7.85
2023-04-21T17:03:07.436Z,6.72
2023-04-21T17:07:19.948Z,8.77
2023-04-21T17:11:33.890Z,9.05
2023-04-21T17:15:46.268Z,8.57
2023-04-21T17:19:58.600Z,8.65
2023-04-21T17:24:11.094Z,12.70
2023-04-21T17:28:23.503Z,8.20
2023-04-21T17:32:41.157Z,13.27
2023-04-21T17:36:53.627Z,8.90
2023-04-21T17:41:07.931Z,11.80
2023-04-21T17:45:20.522Z,11.65
2023-04-21T17:49:32.871Z,9.23
2023-04-21T17:53:46.660Z,11.05
2023-04-21T17:57:59.288Z,11.82
2023-04-21T18:02:11.657Z,10.57
2023-04-21T18:06:24.520Z,13.07
2023-04-21T18:10:38.233Z,19.10
2023-04-21T18:14:50.597Z,13.55
2023-04-21T18:19:03.119Z,12.77
2023-04-21T18:23:15.487Z,14.23
2023-04-21T18:27:27.915Z,17.95
2023-04-21T18:31:40.481Z,11.45
2023-04-21T18:35:52.855Z,10.10
2023-04-21T18:40:05.966Z,13.45
2023-04-21T18:44:18.446Z,14.90
2023-04-21T18:48:30.852Z,17.08
2023-04-21T18:52:43.581Z,16.90
2023-04-21T18:56:55.978Z,13.18
2023-04-21T19:01:08.703Z,12.60
2023-04-21T19:05:21.160Z,11.65
2023-04-21T19:09:33.567Z,11.68
2023-04-21T19:13:48.334Z,18.30
2023-04-21T19:18:00.792Z,11.48
2023-04-21T19:22:13.446Z,12.73
2023-04-21T19:26:26.541Z,10.90
2023-04-21T19:30:38.915Z,11.23
2023-04-21T19:34:51.460Z,13.07
2023-04-21T19:39:05.740Z,10.68
2023-04-21T19:43:19.715Z,11.65
2023-04-21T19:47:36.507Z,13.20
2023-04-21T19:51:48.826Z,14.82
2023-04-21T19:56:01.592Z,15.18
2023-04-21T20:00:15.582Z,17.70
2023-04-21T20:04:28.010Z,21.50
2023-04-21T20:08:40.541Z,19.58
2023-04-21T20:12:53.037Z,17.08
2023-04-21T20:17:05.580Z,18.05
2023-04-21T20:21:17.970Z,22.33
2023-04-21T20:25:30.453Z,20.98
2023-04-21T20:29:42.969Z,23.48
2023-04-21T20:33:55.483Z,19.92
2023-04-21T20:38:08.241Z,20.02
2023-04-21T20:42:22.059Z,31.15
2023-04-21T20:46:35.599Z,18.33
2023-04-21T20:50:49.793Z,20.35
2023-04-21T20:55:03.649Z,13.85
2023-04-21T20:59:16.187Z,21.77
2023-04-21T21:03:29.202Z,14.40
2023-04-21T21:07:41.673Z,14.10
2023-04-21T21:11:54.064Z,14.43
2023-04-21T21:16:06.917Z,13.07
2023-04-21T21:20:19.391Z,14.80
2023-04-21T21:24:31.827Z,16.27
2023-04-21T21:28:44.263Z,14.45
2023-04-21T21:32:56.809Z,15.48
2023-04-21T21:37:09.176Z,15.18
2023-04-21T21:41:21.538Z,12.55
2023-04-21T21:45:34.228Z,22.02
2023-04-21T21:49:46.700Z,13.40
2023-04-21T21:53:59.042Z,9.52
2023-04-21T21:58:11.469Z,11.02
2023-04-21T22:02:23.994Z,13.85
2023-04-21T22:06:37.124Z,10.95
2023-04-21T22:10:49.569Z,11.38
2023-04-21T22:15:01.925Z,10.15
2023-04-21T22:19:14.818Z,12.93
2023-04-21T22:23:28.800Z,13.25
2023-04-21T22:27:41.124Z,13.50
2023-04-21T22:31:53.613Z,13.30
2023-04-21T22:36:07.282Z,15.35
2023-04-21T22:40:21.694Z,14.38
2023-04-21T22:44:34.026Z,11.77
2023-04-21T22:48:46.825Z,12.57
2023-04-21T22:52:59.148Z,15.30
2023-04-21T22:57:11.667Z,14.65
2023-04-21T23:01:24.199Z,16.25
2023-04-21T23:05:36.731Z,16.27
2023-04-21T23:09:49.171Z,13.77
2023-04-21T23:14:01.464Z,12.63
2023-04-21T23:18:13.890Z,13.48
2023-04-21T23:22:26.408Z,13.25
2023-04-21T23:26:38.972Z,14.65
2023-04-21T23:30:51.455Z,9.82
2023-04-21T23:35:05.044Z,10.27
2023-04-21T23:39:18.531Z,14.25
2023-04-21T23:43:32.138Z,11.13
2023-04-21T23:47:45.905Z,12.05
2023-04-21T23:51:58.745Z,13.52
2023-04-21T23:56:11.098Z,12.35
